Latest Weather Observations for Loxton

IDS60801

Issued at 12:01 pm CST Tuesday 25 April 2017 (issued every 30 minutes, with the page automatically refreshed every 10 minutes)

About weather observations | Map of weather stations | Latest weather observations for SA | Other Formats
Station Details ID: 024024 Name: LOXTON RESEARCH CENTRE Lat: -34.44 Lon: 140.60 Height: 30.1 m
Data from the previous 72 hours. | See also: Recent months at Loxton
Date/Time
CST
Temp
°C
App
Temp
°C
Dew
Point
°C
Rel
Hum
%
Delta-T
°C
Wind Press
QNH
hPa
Press
MSL
hPa
Rain since
9am
mm
Dir  Spd
km/h
Gust
km/h
Spd
kts
Gust
kts
25/12:00pm 19.8 16.0 11.2 57 4.7 SW 22 35 12 19 1012.2 1012.2 0.0
25/11:30am 19.5 15.5 11.9 61 4.2 WSW 24 35 13 19 1012.5 1012.5 0.0
25/11:00am 18.6 15.2 11.3 62 4.0 WSW 20 30 11 16 1012.9 1012.8 0.0
25/10:30am 18.5 15.7 12.6 68 3.3 WSW 19 30 10 16 1013.2 1013.1 0.0
25/10:00am 17.7 15.4 13.1 74 2.6 WSW 17 24 9 13 1013.5 1013.4 0.0
25/09:30am 18.0 15.4 13.2 73 2.7 W 19 32 10 17 1013.4 1013.3 0.0
25/09:00am 17.1 14.9 13.4 79 2.1 W 17 24 9 13 1013.3 1013.2 7.2
25/08:30am 16.4 14.6 13.4 82 1.7 W 15 22 8 12 1013.2 1013.1 7.2
25/08:00am 15.3 14.2 13.1 87 1.2 WNW 11 15 6 8 1013.0 1012.9 7.2
25/07:30am 14.6 13.8 13.0 90 0.9 WNW 9 13 5 7 1012.6 1012.6 7.2
25/07:00am 14.2 13.0 12.9 92 0.7 WNW 11 15 6 8 1012.4 1012.4 7.2
25/06:30am 14.4 12.9 13.1 92 0.7 WNW 13 20 7 11 1012.1 1012.1 7.2
25/06:00am 14.8 13.4 13.5 92 0.7 WNW 13 17 7 9 1011.9 1011.9 7.2
25/05:30am 15.3 13.8 14.1 92 0.7 WNW 15 20 8 11 1011.6 1011.6 7.2
25/05:00am 15.6 13.5 14.6 94 0.6 WNW 19 26 10 14 1011.4 1011.4 7.2
25/04:30am 16.0 14.3 14.8 93 0.7 W 17 24 9 13 1011.3 1011.3 7.0
25/04:00am 16.1 15.4 15.4 96 0.4 WNW 13 20 7 11 1011.1 1011.1 7.0
25/03:30am 16.1 16.2 15.6 97 0.3 WNW 9 11 5 6 1011.1 1011.1 7.0
25/03:00am 16.4 17.0 15.9 97 0.3 NW 7 9 4 5 1011.3 1011.3 7.0
25/02:30am 16.8 17.2 16.3 97 0.3 WNW 9 11 5 6 1011.3 1011.3 7.0
25/02:00am 17.1 17.2 16.4 96 0.4 WNW 11 13 6 7 1011.4 1011.4 7.0
25/01:30am 17.2 17.8 16.7 97 0.3 WNW 9 15 5 8 1011.2 1011.2 7.0
25/01:00am 17.2 17.8 16.7 97 0.3 WNW 9 13 5 7 1011.5 1011.5 7.0
25/12:30am 17.2 17.0 16.7 97 0.3 WNW 13 15 7 8 1012.0 1012.0 6.8
25/12:00am 17.2 17.8 16.7 97 0.3 WNW 9 11 5 6 1012.2 1012.2 6.8
 
Date/Time
CST
Temp
°C
App
Temp
°C
Dew
Point
°C
Rel
Hum
%
Delta-T
°C
Wind Press
QNH
hPa
Press
MSL
hPa
Rain since
9am
mm
Dir  Spd
km/h
Gust
km/h
Spd
kts
Gust
kts
24/11:30pm 17.2 18.1 16.7 97 0.3 WNW 7 9 4 5 1012.5 1012.5 6.8
24/11:00pm 17.2 18.3 16.7 97 0.3 NW 6 7 3 4 1012.9 1012.8 6.4
24/10:30pm 17.2 18.1 16.5 96 0.4 NNW 7 11 4 6 1013.1 1013.0 6.4
24/10:00pm 17.3 17.8 16.5 95 0.5 NW 9 13 5 7 1013.6 1013.5 6.2
24/09:30pm 17.7 18.4 17.0 96 0.4 NW 9 15 5 8 1014.0 1013.9 5.2
24/09:00pm 17.8 18.9 17.1 96 0.4 NW 7 11 4 6 1013.9 1013.8 4.8
24/08:30pm 17.9 19.0 17.1 95 0.5 NW 7 13 4 7 1014.0 1013.9 3.6
24/08:00pm 18.2 19.5 17.2 94 0.6 NW 6 9 3 5 1014.0 1013.9 1.8
24/07:30pm 18.4 19.5 17.2 93 0.7 NW 7 9 4 5 1013.9 1013.8 1.4
24/07:00pm 19.2 20.1 16.7 85 1.5 WNW 7 11 4 6 1013.8 1013.7 0.2
24/06:30pm 19.5 20.0 16.5 83 1.8 WNW 9 11 5 6 1013.7 1013.6 0.0
24/06:00pm 19.7 20.0 16.9 84 1.7 W 11 17 6 9 1013.5 1013.4 0.0
24/05:30pm 20.1 20.8 17.0 82 1.9 WNW 9 13 5 7 1013.5 1013.4 0.0
24/05:00pm 20.3 21.0 17.0 81 2.0 NW 9 13 5 7 1013.3 1013.2 0.0
24/04:30pm 20.6 22.0 17.3 81 2.0 W 6 7 3 4 1013.0 1012.9 0.0
24/04:00pm 20.9 21.4 16.6 76 2.6 WNW 9 17 5 9 1013.4 1013.3 0.0
24/03:30pm 22.0 21.0 15.5 66 3.9 WNW 15 22 8 12 1013.3 1013.2 0.0
24/03:00pm 22.7 21.9 16.1 66 4.0 WNW 15 20 8 11 1013.3 1013.2 0.0
24/02:30pm 22.8 21.6 16.0 65 4.1 WNW 17 26 9 14 1013.5 1013.4 0.0
24/02:00pm 23.2 22.3 15.9 63 4.4 NW 15 24 8 13 1013.8 1013.7 0.0
24/01:30pm 23.4 22.6 16.0 63 4.5 NNW 15 20 8 11 1014.0 1013.9 0.0
24/01:00pm 23.7 22.8 15.8 61 4.8 NNW 15 20 8 11 1014.6 1014.5 0.0
24/12:30pm 23.9 23.2 15.4 59 5.1 NNW 13 22 7 12 1015.1 1015.0 0.0
24/12:00pm 23.7 22.2 15.2 59 5.1 NNW 17 24 9 13 1015.5 1015.4 0.0
24/11:30am 23.5 23.1 16.1 63 4.5 NNW 13 19 7 10 1015.9 1015.8 0.0
24/11:00am 22.9 22.4 15.9 64 4.2 N 13 17 7 9 1016.7 1016.6 0.0
24/10:30am 22.8 22.3 16.0 65 4.1 N 13 20 7 11 1017.3 1017.2 0.0
24/10:00am 22.6 22.2 16.3 67 3.8 N 13 20 7 11 1017.3 1017.2 0.0
24/09:30am 22.5 21.8 15.5 64 4.2 NNE 13 19 7 10 1017.7 1017.6 0.0
24/09:00am 21.0 20.8 15.6 71 3.2 NE 11 15 6 8 1017.5 1017.4 0.0
24/08:30am 18.8 19.4 15.8 83 1.8 ENE 7 11 4 6 1017.7 1017.6 0.0
24/08:00am 17.9 18.5 15.7 87 1.3 ENE 7 11 4 6 1017.8 1017.7 0.0
24/07:30am 17.0 17.5 15.6 91 0.8 E 7 9 4 5 1017.9 1017.8 0.0
24/07:00am 16.8 17.2 15.4 91 0.8 ENE 7 9 4 5 1018.1 1018.0 0.0
24/06:30am 16.6 16.7 15.4 93 0.7 E 9 9 5 5 1018.1 1018.0 0.0
24/06:00am 16.6 18.4 15.4 93 0.7 CALM 0 4 0 2 1018.1 1018.0 0.0
24/05:30am 16.6 17.0 15.2 91 0.8 E 7 9 4 5 1017.9 1017.8 0.0
24/05:00am 16.8 17.4 15.3 91 0.9 E 6 7 3 4 1018.1 1018.0 0.0
24/04:30am 17.1 17.5 15.4 90 1.0 E 7 7 4 4 1018.3 1018.2 0.0
24/04:00am 17.5 17.7 14.7 83 1.6 E 7 9 4 5 1018.2 1018.1 0.0
24/03:30am 17.5 17.2 14.5 82 1.7 E 9 13 5 7 1018.2 1018.1 0.0
24/03:00am 17.6 16.5 14.3 81 1.9 E 13 15 7 8 1018.4 1018.3 0.0
24/02:30am 17.5 17.1 14.2 81 1.9 E 9 13 5 7 1018.7 1018.6 0.0
24/02:00am 17.4 17.1 14.3 82 1.8 ESE 9 11 5 6 1019.1 1019.0 0.0
24/01:30am 17.4 16.7 14.3 82 1.8 ESE 11 13 6 7 1019.3 1019.2 0.0
24/01:00am 17.6 17.3 14.3 81 1.9 E 9 13 5 7 1019.4 1019.3 0.0
24/12:30am 17.7 17.3 14.2 80 2.0 ESE 9 15 5 8 1019.6 1019.5 0.0
24/12:00am 17.8 17.4 14.1 79 2.1 ESE 9 13 5 7 1019.7 1019.6 0.0
 
Date/Time
CST
Temp
°C
App
Temp
°C
Dew
Point
°C
Rel
Hum
%
Delta-T
°C
Wind Press
QNH
hPa
Press
MSL
hPa
Rain since
9am
mm
Dir  Spd
km/h
Gust
km/h
Spd
kts
Gust
kts
23/11:30pm 17.9 16.7 14.0 78 2.2 E 13 17 7 9 1019.9 1019.8 0.0
23/11:00pm 17.9 17.2 14.2 79 2.1 E 11 13 6 7 1020.1 1020.0 0.0
23/10:30pm 16.5 16.2 14.4 87 1.2 ESE 9 9 5 5 1020.6 1020.5 0.0
23/10:00pm 17.1 16.9 14.7 86 1.4 ESE 9 13 5 7 1020.7 1020.6 0.0
23/09:30pm 17.9 16.5 14.4 80 2.0 ESE 15 17 8 9 1020.5 1020.4 0.0
23/09:00pm 17.1 16.9 14.7 86 1.4 SE 9 11 5 6 1020.8 1020.7 0.0
23/08:30pm 18.1 17.9 14.6 80 2.0 SE 9 13 5 7 1020.9 1020.8 0.0
23/08:00pm 18.5 17.9 14.7 78 2.2 SE 11 13 6 7 1020.9 1020.8 0.0
23/07:30pm 19.3 18.7 14.5 74 2.8 SE 11 13 6 7 1020.9 1020.8 0.0
23/07:00pm 18.9 18.4 15.0 78 2.3 SE 11 11 6 6 1020.6 1020.5 0.0
23/06:30pm 19.5 19.9 15.2 76 2.5 SE 7 9 4 5 1020.4 1020.3 0.0
23/06:00pm 20.6 20.5 15.0 70 3.3 SE 9 11 5 6 1020.2 1020.1 0.0
23/05:30pm 21.9 21.4 14.8 64 4.2 SE 11 13 6 7 1019.8 1019.7 0.0
23/05:00pm 23.4 22.2 14.0 55 5.5 SE 13 17 7 9 1019.8 1019.7 0.0
23/04:30pm 24.3 22.9 13.5 51 6.3 ESE 13 19 7 10 1019.7 1019.6 0.0
23/04:00pm 24.6 23.1 13.0 48 6.7 ESE 13 17 7 9 1019.7 1019.6 0.0
23/03:30pm 24.5 24.0 13.7 51 6.3 ESE 9 17 5 9 1019.9 1019.8 0.0
23/03:00pm 24.5 23.2 13.7 51 6.3 ESE 13 19 7 10 1019.9 1019.8 0.0
23/02:30pm 24.1 22.9 14.1 53 5.9 SE 13 19 7 10 1019.9 1019.8 0.0
23/02:00pm 24.0 22.8 13.9 53 5.9 ESE 13 17 7 9 1020.2 1020.1 0.0
23/01:30pm 23.6 22.6 14.6 57 5.3 ESE 13 17 7 9 1020.4 1020.3 0.0
23/01:00pm 23.2 22.7 14.8 59 5.0 SSE 11 15 6 8 1020.8 1020.7 0.0
23/12:30pm 23.1 22.9 14.6 58 5.0 SE 9 13 5 7 1021.2 1021.1 0.0
23/12:00pm 22.7 22.8 15.5 64 4.3 SE 9 11 5 6 1021.7 1021.6 0.0
23/11:30am 22.5 22.9 15.3 63 4.3 SE 7 11 4 6 1022.2 1022.1 0.0
23/11:00am 22.3 22.3 15.2 64 4.2 SE 9 13 5 7 1022.7 1022.6 0.0
23/10:30am 22.0 22.1 15.4 66 3.9 ESE 9 17 5 9 1023.0 1022.9 0.0
23/10:00am 21.1 20.6 15.0 68 3.6 SE 11 19 6 10 1023.0 1022.9 0.0
23/09:30am 20.0 19.4 14.7 71 3.1 SE 11 15 6 8 1023.1 1023.0 0.0
23/09:00am 18.7 17.6 14.2 75 2.6 ESE 13 17 7 9 1023.2 1023.1 0.0
23/08:30am 17.5 16.6 13.6 78 2.2 ESE 11 15 6 8 1023.2 1023.1 0.0
23/08:00am 16.2 14.9 12.6 79 2.0 ESE 11 17 6 9 1022.9 1022.8 0.0
23/07:30am 14.6 13.9 12.0 84 1.4 SE 7 11 4 6 1022.8 1022.7 0.0
23/07:00am 13.4 12.2 11.7 89 0.9 SSE 9 13 5 7 1022.7 1022.6 0.0
23/06:30am 13.2 12.4 11.7 91 0.8 SSE 7 11 4 6 1022.5 1022.4 0.0
23/06:00am 13.2 12.0 11.7 91 0.8 SSE 9 11 5 6 1022.2 1022.1 0.0
23/05:30am 13.3 12.5 11.8 91 0.8 SSE 7 11 4 6 1022.1 1022.0 0.0
23/05:00am 13.9 12.1 12.0 88 1.0 SSE 13 17 7 9 1021.9 1021.8 0.0
23/04:30am 13.8 12.3 11.9 88 1.0 SSE 11 15 6 8 1021.6 1021.5 0.0
23/04:00am 13.8 12.7 12.1 89 0.9 SSE 9 13 5 7 1021.6 1021.5 0.0
23/03:30am 14.0 12.9 12.1 88 1.0 SSE 9 13 5 7 1021.7 1021.6 0.0
23/03:00am 14.1 13.0 12.1 88 1.1 SSE 9 11 5 6 1021.8 1021.7 0.0
23/02:30am 14.5 13.5 12.3 87 1.2 SE 9 11 5 6 1021.8 1021.7 0.0
23/02:00am 15.1 13.7 12.1 82 1.6 SSE 11 15 6 8 1022.1 1022.0 0.0
23/01:30am 15.2 14.2 12.3 83 1.6 SSE 9 13 5 7 1022.3 1022.2 0.0
23/01:00am 15.3 14.3 12.4 83 1.6 SE 9 13 5 7 1022.4 1022.3 0.0
23/12:30am 16.0 14.6 12.3 79 2.0 ESE 11 15 6 8 1022.5 1022.4 0.0
23/12:00am 16.4 14.6 12.2 76 2.3 SE 13 17 7 9 1022.6 1022.5 0.0
 
Date/Time
CST
Temp
°C
App
Temp
°C
Dew
Point
°C
Rel
Hum
%
Delta-T
°C
Wind Press
QNH
hPa
Press
MSL
hPa
Rain since
9am
mm
Dir  Spd
km/h
Gust
km/h
Spd
kts
Gust
kts
22/11:30pm 16.5 15.6 12.7 78 2.1 SE 9 13 5 7 1022.7 1022.6 0.0
22/11:00pm 16.7 15.5 12.9 78 2.1 ESE 11 17 6 9 1022.8 1022.7 0.0
22/10:30pm 17.2 16.0 12.9 76 2.4 SE 11 13 6 7 1023.0 1022.9 0.0
22/10:00pm 17.6 16.3 12.5 72 2.8 SE 11 17 6 9 1023.0 1022.9 0.0
22/09:30pm 17.5 16.0 13.2 76 2.4 SSE 13 15 7 8 1022.9 1022.8 0.0
22/09:00pm 18.0 16.6 13.4 74 2.6 SSE 13 17 7 9 1022.7 1022.6 0.0
22/08:30pm 18.3 17.4 13.7 74 2.6 SSE 11 15 6 8 1022.5 1022.4 0.0
22/08:00pm 18.7 17.8 13.6 72 2.9 SSE 11 15 6 8 1022.3 1022.2 0.0
22/07:30pm 18.8 17.9 13.7 72 2.9 S 11 13 6 7 1022.2 1022.1 0.0
22/07:00pm 19.1 18.7 14.0 72 2.9 S 9 13 5 7 1021.9 1021.8 0.0
22/06:30pm 19.5 18.7 14.1 71 3.1 S 11 13 6 7 1021.6 1021.5 0.0
22/06:00pm 19.7 20.0 16.0 79 2.2 SSE 9 11 5 6 1021.4 1021.3 0.0
22/05:30pm 20.8 20.9 15.6 72 3.1 SSE 9 11 5 6 1021.1 1021.0 0.0
22/05:00pm 22.6 22.5 14.0 58 5.0 SE 7 11 4 6 1021.0 1020.9 0.0
22/04:30pm 22.9 22.7 13.6 55 5.4 SE 7 9 4 5 1021.0 1020.9 0.0
22/04:00pm 23.8 22.7 13.0 50 6.2 SSE 11 15 6 8 1020.9 1020.8 0.0
22/03:30pm 24.0 23.3 13.3 51 6.2 SE 9 13 5 7 1020.8 1020.7 0.0
22/03:00pm 23.8 23.1 13.3 51 6.1 ESE 9 15 5 8 1020.9 1020.8 0.0
22/02:30pm 23.4 22.1 13.8 54 5.6 SE 13 17 7 9 1021.1 1021.0 0.0
22/02:00pm 23.5 23.3 13.7 54 5.7 S 7 15 4 8 1021.2 1021.1 0.0
22/01:30pm 23.0 23.2 14.1 57 5.2 SSE 6 15 3 8 1021.4 1021.3 0.0
22/01:00pm 23.3 22.5 14.1 56 5.4 SE 11 19 6 10 1021.7 1021.6 0.0
22/12:30pm 22.8 21.4 14.5 59 4.9 SE 15 24 8 13 1022.1 1022.0 0.0

Other Formats:

Comma delimited format used in spreadsheet applications
http://www.bom.gov.au/fwo/IDS60801/IDS60801.94682.axf

JavaScript Object Notation format (JSON) in row-major order
http://www.bom.gov.au/fwo/IDS60801/IDS60801.94682.json